Aérodrome :
LOGIN :

S'inscrire | Disclaimer

   EN    FR    IT 

 










Légende :    VFR   VFR Marginal   IFR   IFR Intensif   IFR Très Intensif
Visi : 
Plafond : 
>= 8 km
>= 3000ft
5 à 8 km
1000 à 3000 ft
1500m à 5 km
500 à 1000 ft
800 à 1500m
200 à 500 ft
< 800m
< 200 ft
Symboles :   Orages  Brouillard  Fortes neiges  Fortes précipitations  Vent > 20 kt
SIGMETs :   Divers  Orages  Givrage  Turbulence  Onde Orograph.  Cendres Volcan.






- Altitude de l'aérodrome : 1989 ft
- Code IATA : KLV


LKKV - Karlovy Vary

DERNIER METAR :
  • 231800Z 08005KT CAVOK 16/08 Q1016

METARs EXPIRÉS :
  • 231730Z 06005KT CAVOK 18/08 Q1016
  • 231700Z 08004KT CAVOK 18/08 Q1015
  • 231630Z 09006KT CAVOK 18/08 Q1015
  • 231600Z 11005KT CAVOK 18/09 Q1015
  • 231530Z 06006KT 030V090 CAVOK 20/07 Q1015
  • 231500Z 05003KT 360V110 CAVOK 19/08 Q1015
  • 231430Z 05003KT 9999 SCT049 18/08 Q1015
  • 231400Z 01004KT 320V060 9999 SCT048 19/09 Q1016
  • 231330Z VRB02KT CAVOK 19/08 Q1015

TAF TAF LKKV
Valide du 23 à 18h jusqu'au 24 à 18h UTC


231700Z 2318/2418 04006KT CAVOK
BECMG 2404/2406 VRB02KT 9999 BKN020
TEMPO 2406/2418 4000 SHRA SCT005 BKN012CB
PROB40
TEMPO 2409/2414 2000 TSRA BKN009CB



MET'MAP, la Météo Aéronautique d'un coup d'oeil ! - Copyright ORBIFLY Décembre 2007 - Disclaimer

ORBIFLY MET'MAP TEAM :

Programmation & Développement : Alexandra Zaïnal
Sur une idée originale de : Baudouin d'Aumeries
Soutien technique & logistique : Manuel Goepfert
Assistance : Marc-Olivier Méhu




SOURCES & CREDITS :

   NOAA